BWI weather

Public forecast

Using degrees Fahrenheit for public forecast. Weather courtesy of forecast.io.

Current aviation weather report (METAR) for Baltimore/Washington International Thurgood Marshall Airport

Retrieved 2020/08/13 00:54 UTC (49 minutes ago):

KBWI 130054Z 18006KT 10SM -RA FEW014 BKN100 BKN140 BKN250 24/22 A3002 RMK AO2 SLP164 P0005 T02390222

Aviation forecast (TAF) for Baltimore/Washington International Thurgood Marshall Airport

Retrieved 2020-08-13 00:27 UTC (1 hour ago):

TAF KBWI 122323Z 1300/1406 27005KT 6SM -SHRA VCTS BKN035CB FM130200 VRB04KT P6SM BKN050 FM131300 VRB03KT 4SM -SHRA BR VCTS OVC015CB FM131800 07005KT P6SM -SHRA VCTS OVC050CB FM140000 08005KT P6SM BKN003